createdAt,value
2022-12-24T00:02:07.652Z,99906.06
2022-12-24T00:04:35.591Z,99908.84
2022-12-24T00:07:03.404Z,99894.53
2022-12-24T00:09:31.439Z,99898.22
2022-12-24T00:12:01.239Z,99892.22
2022-12-24T00:14:29.172Z,99898.69
2022-12-24T00:16:56.996Z,99905.94
2022-12-24T00:19:25.402Z,99908.03
2022-12-24T00:21:54.312Z,99918.31
2022-12-24T00:24:22.211Z,99918.31
2022-12-24T00:26:50.647Z,99873.56
2022-12-24T00:29:20.718Z,99898.22
2022-12-24T00:31:48.669Z,99932.97
2022-12-24T00:34:17.051Z,99919.34
2022-12-24T00:36:44.764Z,99932.06
2022-12-24T00:39:12.721Z,99937.00
2022-12-24T00:41:42.911Z,99928.38
2022-12-24T00:44:12.156Z,99917.28
2022-12-24T00:46:43.211Z,99940.72
2022-12-24T00:49:12.746Z,99941.63
2022-12-24T00:51:40.881Z,99912.09
2022-12-24T00:54:09.555Z,99931.94
2022-12-24T00:56:37.426Z,99952.25
2022-12-24T00:59:05.552Z,99926.28
2022-12-24T01:01:34.089Z,99900.09
2022-12-24T01:04:17.548Z,99951.66
2022-12-24T01:06:46.359Z,99952.03
2022-12-24T01:09:14.301Z,99960.91
2022-12-24T01:11:42.148Z,99962.53
2022-12-24T01:14:10.526Z,99979.25
2022-12-24T01:16:38.401Z,99975.53
2022-12-24T01:19:07.751Z,99985.47
2022-12-24T01:21:36.000Z,99972.09
2022-12-24T01:24:03.929Z,99974.66
2022-12-24T01:26:31.730Z,99977.06
2022-12-24T01:29:00.421Z,99962.75
2022-12-24T01:31:28.270Z,99962.88
2022-12-24T01:33:56.258Z,99977.44
2022-12-24T01:36:25.775Z,99972.81
2022-12-24T01:38:53.539Z,99926.28
2022-12-24T01:41:41.573Z,99998.53
2022-12-24T01:44:33.404Z,99991.97
2022-12-24T01:47:11.766Z,99953.88
2022-12-24T01:49:42.978Z,99978.78
2022-12-24T01:52:16.336Z,99981.81
2022-12-24T01:54:51.604Z,99962.03
2022-12-24T01:57:24.293Z,99993.13
2022-12-24T01:59:56.215Z,99998.06
2022-12-24T02:02:25.069Z,99990.09
2022-12-24T02:04:59.091Z,100007.88
2022-12-24T02:07:28.860Z,100011.56
2022-12-24T02:09:59.584Z,100002.22
2022-12-24T02:12:28.393Z,100005.09
2022-12-24T02:14:56.597Z,100002.88
2022-12-24T02:17:32.995Z,100016.28
2022-12-24T02:20:35.029Z,100001.84
2022-12-24T02:23:32.530Z,100016.41
2022-12-24T02:26:15.764Z,100010.53
2022-12-24T02:29:07.639Z,100020.22
2022-12-24T02:31:42.977Z,100018.59
2022-12-24T02:34:14.934Z,100015.94
2022-12-24T02:36:48.458Z,100012.94
2022-12-24T02:39:23.635Z,99997.56
2022-12-24T02:42:07.358Z,100012.94
2022-12-24T02:44:40.764Z,100027.38
2022-12-24T02:47:12.157Z,100029.56
2022-12-24T02:49:40.201Z,100020.78
2022-12-24T02:52:07.957Z,100036.13
2022-12-24T02:54:36.126Z,99988.19
2022-12-24T02:57:18.855Z,100029.66
2022-12-24T03:00:00.565Z,100039.00
2022-12-24T03:02:41.505Z,100026.34
2022-12-24T03:05:22.401Z,100048.47
2022-12-24T03:08:04.776Z,100054.94
2022-12-24T03:10:39.776Z,100054.94
2022-12-24T03:13:11.667Z,100063.13
2022-12-24T03:15:41.138Z,100019.34
2022-12-24T03:18:13.252Z,100063.78
2022-12-24T03:20:43.787Z,100063.78
2022-12-24T03:23:12.439Z,100063.31
2022-12-24T03:25:44.027Z,100076.38
2022-12-24T03:28:15.238Z,100083.84
2022-12-24T03:30:44.558Z,100047.00
2022-12-24T03:33:14.836Z,100043.53
2022-12-24T03:35:42.852Z,100064.56
2022-12-24T03:38:11.343Z,100082.16
2022-12-24T03:40:39.215Z,100065.06
2022-12-24T03:43:07.371Z,100071.31
2022-12-24T03:45:36.052Z,100081.94
2022-12-24T03:48:04.290Z,100082.38
2022-12-24T03:50:34.145Z,100067.72
2022-12-24T03:53:02.019Z,100065.16
2022-12-24T03:55:29.919Z,100074.28
2022-12-24T03:57:57.800Z,100061.34
2022-12-24T04:00:25.781Z,100048.41
2022-12-24T04:02:54.840Z,100064.56
2022-12-24T04:05:23.158Z,100054.41
2022-12-24T04:07:52.809Z,100062.59
2022-12-24T04:10:20.683Z,100069.66
2022-12-24T04:12:48.565Z,100051.28
2022-12-24T04:15:16.501Z,100071.97
2022-12-24T04:17:44.341Z,100066.28
2022-12-24T04:20:13.598Z,100072.78
2022-12-24T04:22:42.306Z,100060.19
2022-12-24T04:25:12.652Z,100086.50
2022-12-24T04:27:40.473Z,100080.50
2022-12-24T04:30:09.754Z,100062.69
2022-12-24T04:32:38.186Z,100081.53
2022-12-24T04:35:06.739Z,100083.38
2022-12-24T04:37:35.418Z,100072.13
2022-12-24T04:40:03.384Z,100103.34
2022-12-24T04:42:32.645Z,100081.84
2022-12-24T04:45:00.655Z,100090.88
2022-12-24T04:47:28.597Z,100095.75
2022-12-24T04:49:56.523Z,100084.19
2022-12-24T04:52:24.745Z,100097.72
2022-12-24T04:54:52.570Z,100102.00
2022-12-24T04:57:20.717Z,100098.78
2022-12-24T04:59:50.322Z,100069.34
2022-12-24T05:02:18.488Z,100080.66
2022-12-24T05:04:46.503Z,100084.97
2022-12-24T05:07:14.751Z,100102.81
2022-12-24T05:09:42.504Z,100107.94
2022-12-24T05:12:10.427Z,100084.44
2022-12-24T05:14:38.875Z,100056.75
2022-12-24T05:17:08.186Z,100050.44
2022-12-24T05:19:36.085Z,100125.47
2022-12-24T05:22:21.593Z,100094.69
2022-12-24T05:25:07.028Z,100118.97
2022-12-24T05:27:34.936Z,100115.28
2022-12-24T05:30:02.837Z,100121.19
2022-12-24T05:32:32.741Z,100103.03
2022-12-24T05:35:00.550Z,100089.53
2022-12-24T05:37:28.418Z,100132.91
2022-12-24T05:39:56.305Z,100137.25
2022-12-24T05:42:24.208Z,100103.41
2022-12-24T05:44:52.344Z,100143.19
2022-12-24T05:47:20.296Z,100146.84
2022-12-24T05:49:49.578Z,100135.38
2022-12-24T05:52:17.714Z,100152.94
2022-12-24T05:54:45.509Z,100166.06
2022-12-24T05:57:13.993Z,100142.66
2022-12-24T05:59:41.820Z,100156.72
2022-12-24T06:02:10.856Z,100145.97
2022-12-24T06:04:39.080Z,100161.38
2022-12-24T06:07:08.427Z,100147.88
2022-12-24T06:09:36.803Z,100163.38
2022-12-24T06:12:04.908Z,100162.75
2022-12-24T06:14:32.918Z,100167.25
2022-12-24T06:17:02.281Z,100123.09
2022-12-24T06:19:30.080Z,100150.81
2022-12-24T06:21:57.918Z,100129.91
2022-12-24T06:24:27.422Z,100175.28
2022-12-24T06:26:55.273Z,100182.22
2022-12-24T06:29:23.101Z,100174.47
2022-12-24T06:31:51.266Z,100125.03
2022-12-24T06:34:19.354Z,100172.84
2022-12-24T06:36:47.292Z,100160.72
2022-12-24T06:39:15.602Z,100169.84
2022-12-24T06:41:45.081Z,100146.13
2022-12-24T06:44:12.954Z,100153.84
2022-12-24T06:46:40.982Z,100180.47
2022-12-24T06:49:09.417Z,100180.47
2022-12-24T06:51:37.717Z,100165.88
2022-12-24T06:54:05.693Z,100184.13
2022-12-24T06:56:33.455Z,100189.44
2022-12-24T06:59:05.551Z,100207.84
2022-12-24T07:01:33.857Z,100197.84
2022-12-24T07:04:01.904Z,100180.88
2022-12-24T07:06:31.142Z,100194.72
2022-12-24T07:08:59.212Z,100204.34
2022-12-24T07:11:28.040Z,100198.41
2022-12-24T07:13:55.974Z,100146.06
2022-12-24T07:16:25.753Z,100200.78
2022-12-24T07:18:53.728Z,100186.84
2022-12-24T07:21:21.471Z,100190.09
2022-12-24T07:23:49.755Z,100170.66
2022-12-24T07:26:17.621Z,100189.75
2022-12-24T07:28:45.386Z,100142.25
2022-12-24T07:31:13.639Z,100197.56
2022-12-24T07:33:43.050Z,100219.06
2022-12-24T07:36:16.339Z,100212.72
2022-12-24T07:38:44.139Z,100225.56
2022-12-24T07:41:12.227Z,100225.56
2022-12-24T07:43:40.701Z,100206.88
2022-12-24T07:46:08.542Z,100227.97
2022-12-24T07:48:36.647Z,100239.16
2022-12-24T07:51:06.987Z,100232.81
2022-12-24T07:53:35.182Z,100217.31
2022-12-24T07:56:07.555Z,100249.13
2022-12-24T07:58:38.619Z,100251.34
2022-12-24T08:01:06.686Z,100209.16
2022-12-24T08:03:34.766Z,100246.03
2022-12-24T08:06:03.199Z,100247.28
2022-12-24T08:08:32.486Z,100261.06
2022-12-24T08:11:04.224Z,100246.03
2022-12-24T08:13:32.753Z,100264.88
2022-12-24T08:16:00.900Z,100273.31
2022-12-24T08:18:28.952Z,100273.31
2022-12-24T08:20:56.894Z,100257.09
2022-12-24T08:23:24.737Z,100280.97
2022-12-24T08:25:54.859Z,100290.09
2022-12-24T08:28:22.638Z,100288.50
2022-12-24T08:30:51.671Z,100279.78
2022-12-24T08:33:20.915Z,100300.50
2022-12-24T08:35:50.243Z,100298.44
2022-12-24T08:38:18.591Z,100299.25
2022-12-24T08:40:49.415Z,100293.13
2022-12-24T08:43:19.381Z,100291.16
2022-12-24T08:45:49.859Z,100305.00
2022-12-24T08:48:17.909Z,100307.22
2022-12-24T08:50:46.460Z,100277.41
2022-12-24T08:53:14.539Z,100295.69
2022-12-24T08:55:42.541Z,100311.06
2022-12-24T08:58:10.538Z,100279.91
2022-12-24T09:00:40.415Z,100265.19
2022-12-24T09:03:08.580Z,100315.34
2022-12-24T09:05:41.403Z,100316.38
2022-12-24T09:08:09.302Z,100331.41
2022-12-24T09:10:37.178Z,100337.75
2022-12-24T09:13:05.323Z,100304.47
2022-12-24T09:15:33.345Z,100342.41
2022-12-24T09:18:02.954Z,100353.38
2022-12-24T09:20:31.509Z,100344.81
2022-12-24T09:22:59.351Z,100330.66
2022-12-24T09:25:28.261Z,100349.69
2022-12-24T09:27:57.886Z,100329.47
2022-12-24T09:30:25.835Z,100330.53
2022-12-24T09:32:53.735Z,100349.78
2022-12-24T09:35:23.679Z,100334.63
2022-12-24T09:38:02.837Z,100331.09
2022-12-24T09:40:37.545Z,100330.53
2022-12-24T09:43:12.924Z,100312.38
2022-12-24T09:45:43.475Z,100375.66
2022-12-24T09:48:17.290Z,100339.59
2022-12-24T09:50:53.648Z,100349.09
2022-12-24T09:53:25.130Z,100336.72
2022-12-24T09:55:57.620Z,100397.63
2022-12-24T09:58:29.646Z,100347.31
2022-12-24T10:00:58.595Z,100390.78
2022-12-24T10:03:27.185Z,100401.34
2022-12-24T10:06:08.100Z,100401.34
2022-12-24T10:08:45.093Z,100387.91
2022-12-24T10:11:20.431Z,100380.50
2022-12-24T10:13:55.999Z,100384.50
2022-12-24T10:16:30.816Z,100387.31
2022-12-24T10:19:12.000Z,100386.75
2022-12-24T10:21:52.728Z,100389.97
2022-12-24T10:24:26.361Z,100381.72
2022-12-24T10:27:00.511Z,100386.88
2022-12-24T10:29:31.247Z,100396.69
2022-12-24T10:32:07.027Z,100387.91
2022-12-24T10:34:39.777Z,100390.56
2022-12-24T10:37:16.251Z,100394.63
2022-12-24T10:39:44.539Z,100374.25
2022-12-24T10:42:14.583Z,100356.63
2022-12-24T10:44:43.106Z,100384.13
2022-12-24T10:47:12.354Z,100347.41
2022-12-24T10:49:47.661Z,100374.56
2022-12-24T10:52:22.743Z,100378.69
2022-12-24T10:55:09.802Z,100397.34
2022-12-24T10:57:39.147Z,100399.31
2022-12-24T11:00:10.946Z,100406.63
2022-12-24T11:02:40.167Z,100409.28
2022-12-24T11:05:28.784Z,100412.19
2022-12-24T11:08:02.796Z,100407.44
2022-12-24T11:10:31.090Z,100408.94
2022-12-24T11:13:35.105Z,100408.72
2022-12-24T11:15:47.651Z,100402.94
2022-12-24T11:18:16.841Z,100403.84
2022-12-24T11:20:52.869Z,100404.22
2022-12-24T11:23:23.872Z,100398.03
2022-12-24T11:25:53.809Z,100420.31
2022-12-24T11:28:24.895Z,100405.19
2022-12-24T11:30:59.555Z,100409.03
2022-12-24T11:33:28.110Z,100415.34
2022-12-24T11:36:02.272Z,100406.50
2022-12-24T11:38:33.991Z,100419.47
2022-12-24T11:41:06.130Z,100412.53
2022-12-24T11:43:47.221Z,100393.47
2022-12-24T11:46:38.924Z,100395.13
2022-12-24T11:49:15.331Z,100412.41
2022-12-24T11:52:02.713Z,100410.34
2022-12-24T11:54:38.143Z,100382.00
2022-12-24T11:57:07.644Z,100419.78
2022-12-24T11:59:39.689Z,100377.16
2022-12-24T12:02:20.693Z,100387.81
2022-12-24T12:04:53.046Z,100406.78
2022-12-24T12:07:26.801Z,100402.03
2022-12-24T12:10:01.734Z,100419.72
2022-12-24T12:12:32.898Z,100412.13
2022-12-24T12:15:05.123Z,100407.63
2022-12-24T12:17:36.553Z,100381.97
2022-12-24T12:20:12.011Z,100411.31
2022-12-24T12:22:47.059Z,100414.53
2022-12-24T12:25:23.864Z,100403.19
2022-12-24T12:27:55.118Z,100393.81
2022-12-24T12:30:24.429Z,100375.19
2022-12-24T12:32:58.336Z,100395.22
2022-12-24T12:35:29.646Z,100376.41
2022-12-24T12:38:02.331Z,100371.56
2022-12-24T12:40:56.484Z,100416.63
2022-12-24T12:43:40.483Z,100432.25
2022-12-24T12:46:17.944Z,100407.47
2022-12-24T12:49:02.824Z,100395.91
2022-12-24T12:51:40.007Z,100424.88
2022-12-24T12:54:25.246Z,100398.69
2022-12-24T12:56:57.520Z,100422.44
2022-12-24T12:59:34.165Z,100354.00
2022-12-24T13:02:15.441Z,100408.31
2022-12-24T13:05:02.661Z,100397.53
2022-12-24T13:07:52.705Z,100421.88
2022-12-24T13:10:54.550Z,100432.88
2022-12-24T13:13:46.603Z,100398.16
2022-12-24T13:16:54.258Z,100386.06
2022-12-24T13:19:38.263Z,100437.97
2022-12-24T13:22:07.107Z,100407.84
2022-12-24T13:24:36.084Z,100408.78
2022-12-24T13:27:07.407Z,100423.53
2022-12-24T13:29:52.042Z,100411.81
2022-12-24T13:32:50.958Z,100414.94
2022-12-24T13:35:38.304Z,100426.88
2022-12-24T13:38:43.803Z,100424.78
2022-12-24T13:41:50.152Z,100418.22
2022-12-24T13:44:24.371Z,100369.56
2022-12-24T13:47:00.006Z,100403.38
2022-12-24T13:49:32.596Z,100423.91
2022-12-24T13:52:19.277Z,100422.25
2022-12-24T13:55:01.973Z,100425.97
2022-12-24T13:57:38.245Z,100414.63
2022-12-24T14:00:10.584Z,100425.97
2022-12-24T14:02:47.673Z,100395.63
2022-12-24T14:05:22.068Z,100405.78
2022-12-24T14:07:51.305Z,100429.84
2022-12-24T14:10:26.545Z,100446.91
2022-12-24T14:12:54.896Z,100436.44
2022-12-24T14:16:02.225Z,100451.88
2022-12-24T14:18:35.283Z,100447.81
2022-12-24T14:21:04.281Z,100440.38
2022-12-24T14:23:38.653Z,100442.16
2022-12-24T14:26:15.684Z,100442.81
2022-12-24T14:28:48.198Z,100413.75
2022-12-24T14:31:19.193Z,100434.25
2022-12-24T14:33:48.582Z,100425.56
2022-12-24T14:36:23.436Z,100411.31
2022-12-24T14:38:51.685Z,100444.19
2022-12-24T14:41:31.561Z,100432.25
2022-12-24T14:44:09.462Z,100464.56
2022-12-24T14:46:45.405Z,100461.91
2022-12-24T14:49:25.267Z,100441.50
2022-12-24T14:52:04.755Z,100471.53
2022-12-24T14:54:39.933Z,100460.97
2022-12-24T14:57:17.685Z,100478.00
2022-12-24T14:59:48.380Z,100473.53
2022-12-24T15:02:26.478Z,100470.25
2022-12-24T15:05:11.738Z,100474.06
2022-12-24T15:07:47.474Z,100474.88
2022-12-24T15:10:26.650Z,100473.94
2022-12-24T15:12:57.697Z,100484.69
2022-12-24T15:15:25.673Z,100477.16
2022-12-24T15:17:53.971Z,100493.97
2022-12-24T15:20:26.364Z,100477.66
2022-12-24T15:22:57.456Z,100487.84
2022-12-24T15:25:28.591Z,100491.16
2022-12-24T15:27:57.004Z,100441.59
2022-12-24T15:30:26.483Z,100420.88
2022-12-24T15:32:56.474Z,100472.88
2022-12-24T15:35:45.544Z,100492.81
2022-12-24T15:38:28.592Z,100478.91
2022-12-24T15:40:58.965Z,100467.44
2022-12-24T15:43:28.320Z,100469.03
2022-12-24T15:45:56.532Z,100474.38
2022-12-24T15:48:27.097Z,100488.25
2022-12-24T15:50:59.502Z,100475.84
2022-12-24T15:53:31.353Z,100496.81
2022-12-24T15:56:06.381Z,100464.56
2022-12-24T15:58:36.291Z,100468.88
2022-12-24T16:09:46.635Z,100503.19
2022-12-24T16:12:18.164Z,100514.88
2022-12-24T16:14:53.425Z,100519.72
2022-12-24T16:17:24.438Z,100453.97
2022-12-24T16:19:55.476Z,100495.03
2022-12-24T16:22:35.379Z,100509.41
2022-12-24T16:25:17.722Z,100509.63
2022-12-24T16:27:47.004Z,100520.19
2022-12-24T16:30:15.089Z,100458.09
2022-12-24T16:32:44.111Z,100501.50
2022-12-24T16:35:24.367Z,100502.03
2022-12-24T16:37:54.725Z,100486.09
2022-12-24T16:40:32.504Z,100463.03
2022-12-24T16:43:18.902Z,100458.78
2022-12-24T16:45:48.481Z,100480.69
2022-12-24T16:48:28.391Z,100492.44
2022-12-24T16:50:56.720Z,100495.09
2022-12-24T16:53:26.107Z,100470.72
2022-12-24T16:55:53.956Z,100488.81
2022-12-24T16:58:22.776Z,100475.91
2022-12-24T17:00:51.166Z,100488.97
2022-12-24T17:03:19.368Z,100457.91
2022-12-24T17:05:47.529Z,100457.28
2022-12-24T17:08:15.592Z,100447.81
2022-12-24T17:10:52.312Z,100497.97
2022-12-24T17:13:22.494Z,100491.41
2022-12-24T17:15:50.626Z,100525.00
2022-12-24T17:18:18.881Z,100511.19
2022-12-24T17:20:47.395Z,100497.19
2022-12-24T17:23:15.249Z,100480.03
2022-12-24T17:25:44.559Z,100494.09
2022-12-24T17:28:13.314Z,100521.91
2022-12-24T17:30:41.804Z,100536.19
2022-12-24T17:33:14.568Z,100514.84
2022-12-24T17:35:44.239Z,100515.41
2022-12-24T17:38:12.317Z,100502.22
2022-12-24T17:40:42.672Z,100512.19
2022-12-24T17:43:12.888Z,100499.97
2022-12-24T17:45:42.331Z,100480.03
2022-12-24T17:48:10.306Z,100498.94
2022-12-24T17:50:40.782Z,100493.84
2022-12-24T17:53:11.756Z,100501.25
2022-12-24T17:55:43.427Z,100490.00
2022-12-24T17:58:15.138Z,100473.59
2022-12-24T18:00:43.739Z,100426.50
2022-12-24T18:03:14.703Z,100469.34
2022-12-24T18:05:42.803Z,100492.34
2022-12-24T18:08:11.311Z,100482.03
2022-12-24T18:10:39.189Z,100497.81
2022-12-24T18:13:07.946Z,100473.59
2022-12-24T18:15:40.248Z,100481.72
2022-12-24T18:18:09.313Z,100490.50
2022-12-24T18:20:44.389Z,100500.13
2022-12-24T18:23:14.948Z,100485.53
2022-12-24T18:25:42.789Z,100498.47
2022-12-24T18:28:11.185Z,100474.97
2022-12-24T18:30:42.522Z,100497.50
2022-12-24T18:33:10.478Z,100462.41
2022-12-24T18:35:38.267Z,100513.66
2022-12-24T18:38:06.504Z,100507.53
2022-12-24T18:40:37.871Z,100496.94
2022-12-24T18:43:05.723Z,100502.47
2022-12-24T18:45:34.202Z,100504.31
2022-12-24T18:48:03.562Z,100480.78
2022-12-24T18:50:31.327Z,100464.09
2022-12-24T18:52:59.280Z,100454.94
2022-12-24T18:55:27.526Z,100489.06
2022-12-24T18:57:55.458Z,100462.66
2022-12-24T19:00:24.501Z,100508.78
2022-12-24T19:02:52.464Z,100513.28
2022-12-24T19:05:21.999Z,100508.47
2022-12-24T19:07:50.502Z,100520.66
2022-12-24T19:10:18.439Z,100521.69
2022-12-24T19:12:46.402Z,100511.75
2022-12-24T19:15:15.524Z,100495.50
2022-12-24T19:17:44.060Z,100514.25
2022-12-24T19:20:12.708Z,100520.91
2022-12-24T19:22:42.720Z,100503.22
2022-12-24T19:25:10.839Z,100505.88
2022-12-24T19:27:38.744Z,100521.38
2022-12-24T19:30:08.403Z,100529.69
2022-12-24T19:32:36.244Z,100530.50
2022-12-24T19:35:04.062Z,100470.94
2022-12-24T19:37:32.473Z,100521.16
2022-12-24T19:40:01.767Z,100509.31
2022-12-24T19:42:30.732Z,100457.28
2022-12-24T19:44:58.990Z,100511.28
2022-12-24T19:47:26.874Z,100492.19
2022-12-24T19:49:54.891Z,100521.91
2022-12-24T19:52:30.008Z,100516.59
2022-12-24T19:54:57.931Z,100513.56
2022-12-24T19:57:28.047Z,100500.13
2022-12-24T19:59:56.060Z,100512.09
2022-12-24T20:02:24.386Z,100501.91
2022-12-24T20:04:53.151Z,100505.59
2022-12-24T20:07:20.907Z,100495.56
2022-12-24T20:09:48.743Z,100495.00
2022-12-24T20:12:16.979Z,100480.19
2022-12-24T20:14:46.437Z,100513.34
2022-12-24T20:17:15.106Z,100523.75
2022-12-24T20:19:43.440Z,100518.44
2022-12-24T20:22:12.325Z,100512.53
2022-12-24T20:24:40.437Z,100503.53
2022-12-24T20:27:08.833Z,100479.16
2022-12-24T20:29:36.827Z,100488.31
2022-12-24T20:32:07.012Z,100490.09
2022-12-24T20:34:35.542Z,100467.34
2022-12-24T20:37:04.274Z,100485.50
2022-12-24T20:39:32.149Z,100510.31
2022-12-24T20:42:01.477Z,100504.41
2022-12-24T20:44:29.385Z,100491.03
2022-12-24T20:46:57.276Z,100457.69
2022-12-24T20:49:26.765Z,100469.03
2022-12-24T20:51:54.699Z,100513.34
2022-12-24T20:54:22.448Z,100497.69
2022-12-24T20:56:57.886Z,100514.16
2022-12-24T20:59:26.885Z,100502.78
2022-12-24T21:01:55.471Z,100492.66
2022-12-24T21:04:23.513Z,100522.28
2022-12-24T21:06:52.846Z,100506.44
2022-12-24T21:09:20.988Z,100519.47
2022-12-24T21:12:11.670Z,100498.72
2022-12-24T21:14:40.145Z,100520.25
2022-12-24T21:17:13.601Z,100520.28
2022-12-24T21:19:43.779Z,100528.38
2022-12-24T21:22:13.196Z,100529.59
2022-12-24T21:24:41.244Z,100530.84
2022-12-24T21:27:09.732Z,100522.44
2022-12-24T21:29:37.673Z,100518.41
2022-12-24T21:32:05.723Z,100496.00
2022-12-24T21:34:33.984Z,100471.03
2022-12-24T21:37:01.914Z,100512.09
2022-12-24T21:39:31.381Z,100491.28
2022-12-24T21:41:59.891Z,100447.06
2022-12-24T21:44:27.595Z,100452.72
2022-12-24T21:46:55.549Z,100484.41
2022-12-24T21:49:41.117Z,100458.97
2022-12-24T21:52:08.891Z,100489.59
2022-12-24T21:54:37.119Z,100479.88
2022-12-24T21:57:26.176Z,100490.00
2022-12-24T21:59:56.980Z,100489.38
2022-12-24T22:02:28.480Z,100480.84
2022-12-24T22:04:56.520Z,100481.41
2022-12-24T22:07:44.735Z,100468.63
2022-12-24T22:10:33.054Z,100458.25
2022-12-24T22:13:03.783Z,100489.59
2022-12-24T22:15:31.863Z,100490.03
2022-12-24T22:17:59.765Z,100445.13
2022-12-24T22:20:28.306Z,100460.75
2022-12-24T22:22:56.145Z,100475.94
2022-12-24T22:25:25.357Z,100449.97
2022-12-24T22:27:53.750Z,100466.78
2022-12-24T22:30:21.828Z,100426.56
2022-12-24T22:32:49.675Z,100443.63
2022-12-24T22:35:18.911Z,100416.00
2022-12-24T22:37:47.363Z,100458.16
2022-12-24T22:40:15.523Z,100467.56
2022-12-24T22:42:45.495Z,100458.41
2022-12-24T22:45:20.005Z,100431.53
2022-12-24T22:47:50.600Z,100454.06
2022-12-24T22:50:18.478Z,100451.41
2022-12-24T22:52:46.609Z,100450.38
2022-12-24T22:55:15.180Z,100419.56
2022-12-24T22:57:44.562Z,100458.13
2022-12-24T23:00:17.714Z,100466.69
2022-12-24T23:02:45.599Z,100474.06
2022-12-24T23:05:16.329Z,100478.41
2022-12-24T23:07:44.268Z,100454.38
2022-12-24T23:10:12.210Z,100442.22
2022-12-24T23:12:57.747Z,100481.00
2022-12-24T23:15:26.967Z,100491.63
2022-12-24T23:17:56.170Z,100452.78
2022-12-24T23:20:24.395Z,100478.56
2022-12-24T23:22:52.139Z,100479.78
2022-12-24T23:25:20.472Z,100485.09
2022-12-24T23:27:48.784Z,100456.47
2022-12-24T23:30:17.220Z,100478.59
2022-12-24T23:32:48.176Z,100479.47
2022-12-24T23:35:16.637Z,100468.84
2022-12-24T23:37:44.663Z,100463.41
2022-12-24T23:40:12.945Z,100475.38
2022-12-24T23:42:41.611Z,100464.13
2022-12-24T23:45:10.340Z,100467.63
2022-12-24T23:47:38.203Z,100467.25
2022-12-24T23:50:10.748Z,100473.44
2022-12-24T23:52:38.512Z,100470.00
2022-12-24T23:55:07.317Z,100414.56
2022-12-24T23:57:35.337Z,100448.66
